createdAt,value
2022-11-06T08:35:38.607Z,67.10
2022-11-06T08:45:43.641Z,73.80
2022-11-06T08:55:40.959Z,72.40
2022-11-06T09:05:39.893Z,68.30
2022-11-06T09:15:37.637Z,68.10
2022-11-06T09:25:34.751Z,65.30
2022-11-06T09:35:34.237Z,59.20
2022-11-06T09:45:33.891Z,62.70
2022-11-06T09:55:36.000Z,59.30
2022-11-06T10:05:38.384Z,60.10
2022-11-06T10:16:06.884Z,60.40
2022-11-06T10:26:14.047Z,59.60
2022-11-06T10:36:36.905Z,57.10
2022-11-06T10:46:38.507Z,51.30
2022-11-06T10:56:47.880Z,44.30
2022-11-06T11:06:45.137Z,37.30
2022-11-06T11:16:44.866Z,35.60
2022-11-06T11:26:48.647Z,34.10
2022-11-06T11:37:05.801Z,33.60
2022-11-06T11:47:19.517Z,32.70
2022-11-06T11:57:26.699Z,32.30
2022-11-06T12:07:46.008Z,32.90
2022-11-06T12:17:46.461Z,32.50
2022-11-06T12:27:58.028Z,31.10
2022-11-06T12:38:01.145Z,29.20
2022-11-06T12:48:16.125Z,31.60
2022-11-06T12:58:36.810Z,35.00
2022-11-06T13:09:03.360Z,36.30
2022-11-06T13:19:18.288Z,37.10
2022-11-06T13:29:19.311Z,35.50
2022-11-06T13:39:40.630Z,37.00
2022-11-06T13:50:02.375Z,34.90
2022-11-06T14:00:46.170Z,37.10
2022-11-06T14:10:54.327Z,32.90
2022-11-06T14:21:26.516Z,34.80
2022-11-06T14:32:02.311Z,33.50
2022-11-06T14:42:00.245Z,34.70
2022-11-06T14:52:10.316Z,36.00
2022-11-06T15:02:16.289Z,35.90
2022-11-06T15:12:13.711Z,43.80
2022-11-06T15:22:37.876Z,39.20
2022-11-06T15:32:41.593Z,47.20
2022-11-06T15:42:38.994Z,52.60
2022-11-06T15:52:36.161Z,55.20
2022-11-06T16:02:33.686Z,50.00
2022-11-06T16:12:31.274Z,47.60
2022-11-06T16:22:31.073Z,51.70
2022-11-06T16:32:32.214Z,56.50
2022-11-06T16:42:36.014Z,61.70
2022-11-06T16:52:34.407Z,71.20
2022-11-06T17:02:38.270Z,71.80
2022-11-06T17:12:35.449Z,74.40
2022-11-06T17:22:32.666Z,69.80
2022-11-06T17:32:29.833Z,64.30
2022-11-06T17:42:26.924Z,67.70
2022-11-06T17:52:24.088Z,71.80
2022-11-06T18:02:40.749Z,66.10
2022-11-06T18:12:38.441Z,67.20
2022-11-06T18:22:35.641Z,63.90
2022-11-06T18:32:32.772Z,63.90
2022-11-06T18:42:29.982Z,64.70
2022-11-06T18:52:51.663Z,65.60
2022-11-06T19:02:44.418Z,65.00
2022-11-06T19:12:42.167Z,66.90
2022-11-06T19:22:39.343Z,68.40
2022-11-06T19:32:36.461Z,65.60
2022-11-06T19:42:33.915Z,62.40
2022-11-06T19:52:43.207Z,60.40
2022-11-06T20:02:42.049Z,61.00
2022-11-06T20:12:39.255Z,61.30
2022-11-06T20:22:36.366Z,61.30
2022-11-06T20:32:34.112Z,62.50
2022-11-06T20:42:32.595Z,58.70
2022-11-06T20:52:29.923Z,58.00
2022-11-06T21:02:27.233Z,58.20
2022-11-06T21:12:24.666Z,59.30
2022-11-06T21:22:21.714Z,59.30
2022-11-06T21:32:19.049Z,60.80
2022-11-06T21:42:16.651Z,59.80
2022-11-06T21:52:32.085Z,59.20
2022-11-06T22:02:29.319Z,59.40
2022-11-06T22:12:26.587Z,62.80
